aviador You're here:

KMLP Decoded Metar

MULLAN PASS in ID, USA
Report Time2017-06-24 21:53:00
UTC Time2017-06-24 22:19:42
Flight Rules vfr VFR
WindCalm
Visibility9999 m
Phenomena:N/A
Clouds:N/A
Expected CloudBase > 7,600 ft AGL from Temp-Dew spread
CeilingNone
Temp21°C (ISA +18)
Dew Point02°C (29% RH)
AAT19.4°C
QNH1028 hPa
Density Alt7,690 ft
Elevation6,027 ft
Report Wrong Elevation
Raw Report
METAR KMLP 242153Z AUTO 00000KT 10SM CLR 21/02 A3037 RMK AO2 SLP189
T02110017 TSNO=

Extra information for KMLP:More info

Metar Taf Metar & Taf Last 4 Metars F.Rules Stats Wind Profile Meteogram Temp Stats Airport Information Weather charts Add Link Nearby VenuesMetar ALERT Operation Metar Decoded Social comments

AIRNAV info for KMLP